Time;durP1;ratioP1;P1;durP2;ratioP2;P2;SDS_P1;SDS_P2;PMS_P1;PMS_P2;Temp;Humidity;BMP_temperature;BMP_pressure;BME280_temperature;BME280_humidity;BME280_pressure;Samples;Min_cycle;Max_cycle;Signal;HPM_P1;HPM_P2
2020/12/31 00:00:19;;;;;;;;;;;4.70;99.90;;;;;;5040786;28;19913;-83
2020/12/31 00:02:45;;;;;;;;;;;4.70;99.90;;;;;;5041814;28;19935;-84
2020/12/31 00:05:10;;;;;;;;;;;4.70;99.90;;;;;;5057185;28;19913;-83
2020/12/31 00:07:36;;;;;;;;;;;4.60;99.90;;;;;;5046417;28;20052;-84
2020/12/31 00:10:02;;;;;;;;;;;4.60;99.90;;;;;;5061717;28;19912;-84
2020/12/31 00:12:27;;;;;;;;;;;4.60;99.90;;;;;;5056224;28;19921;-83
2020/12/31 00:14:53;;;;;;;;;;;4.60;99.90;;;;;;5040835;28;20520;-83
2020/12/31 00:17:18;;;;;;;;;;;4.60;99.90;;;;;;5043629;28;19913;-83
2020/12/31 00:19:44;;;;;;;;;;;4.60;99.90;;;;;;5041901;28;19912;-83
2020/12/31 00:22:09;;;;;;;;;;;4.60;99.90;;;;;;5042027;28;19935;-83
2020/12/31 00:24:35;;;;;;;;;;;4.60;99.90;;;;;;5040747;28;19968;-83
2020/12/31 00:27:00;;;;;;;;;;;4.60;99.90;;;;;;5043167;28;19963;-83
2020/12/31 00:29:26;;;;;;;;;;;4.60;99.90;;;;;;5059684;28;19988;-83
2020/12/31 00:31:51;;;;;;;;;;;4.60;99.90;;;;;;5061011;28;19912;-83
2020/12/31 00:34:17;;;;;;;;;;;4.60;99.90;;;;;;5060013;28;19913;-84
2020/12/31 00:39:14;;;;;;;;;;;4.60;99.90;;;;;;5082619;22;19931;-83
2020/12/31 00:41:40;;;;;;;;;;;4.50;99.90;;;;;;5062787;28;20003;-83
2020/12/31 00:44:05;;;;;;;;;;;4.50;99.90;;;;;;5062173;28;19976;-83
2020/12/31 00:46:30;;;;;;;;;;;4.50;99.90;;;;;;5064136;28;19920;-83
2020/12/31 00:48:56;;;;;;;;;;;4.50;99.90;;;;;;5087046;28;19930;-82
2020/12/31 00:51:21;;;;;;;;;;;4.50;99.90;;;;;;5078423;28;19932;-84
2020/12/31 00:53:47;;;;;;;;;;;4.40;99.90;;;;;;5066840;28;19920;-85
2020/12/31 00:56:12;;;;;;;;;;;4.40;99.90;;;;;;5065862;28;19912;-85
2020/12/31 00:58:38;;;;;;;;;;;4.40;99.90;;;;;;5067771;28;19939;-82
2020/12/31 01:01:03;;;;;;;;;;;4.40;99.90;;;;;;5070983;28;19913;-84
2020/12/31 01:03:29;;;;;;;;;;;4.40;99.90;;;;;;5070466;28;19984;-84
2020/12/31 01:05:54;;;;;;;;;;;4.40;99.90;;;;;;5071203;28;19913;-85
2020/12/31 01:08:20;;;;;;;;;;;4.40;99.90;;;;;;5069265;28;20292;-84
2020/12/31 01:10:45;;;;;;;;;;;4.40;99.90;;;;;;5069332;28;19913;-83
2020/12/31 01:13:11;;;;;;;;;;;4.40;99.90;;;;;;5077487;28;19920;-83
2020/12/31 01:15:36;;;;;;;;;;;4.50;99.90;;;;;;5074313;28;19909;-83
2020/12/31 01:18:02;;;;;;;;;;;4.50;99.90;;;;;;5074279;28;20577;-82
2020/12/31 01:20:27;;;;;;;;;;;4.60;99.90;;;;;;5073882;28;19924;-83
2020/12/31 01:22:53;;;;;;;;;;;4.60;99.90;;;;;;5074822;28;19916;-83
2020/12/31 01:25:19;;;;;;;;;;;4.60;99.90;;;;;;5073561;28;19952;-83
2020/12/31 01:27:44;;;;;;;;;;;4.60;99.90;;;;;;5074233;28;19935;-83
2020/12/31 01:30:10;;;;;;;;;;;4.70;99.90;;;;;;5072015;28;19913;-83
2020/12/31 01:32:35;;;;;;;;;;;4.70;99.90;;;;;;5067502;28;19916;-84
2020/12/31 01:35:01;;;;;;;;;;;4.70;99.90;;;;;;5062537;28;20296;-84
2020/12/31 01:37:26;;;;;;;;;;;4.70;99.90;;;;;;5064950;28;19916;-83
2020/12/31 01:39:51;;;;;;;;;;;4.70;99.90;;;;;;5063180;28;20305;-84
2020/12/31 01:42:17;;;;;;;;;;;4.80;99.90;;;;;;5065422;28;19931;-84
2020/12/31 01:44:43;;;;;;;;;;;4.80;99.90;;;;;;5064849;28;19913;-83
2020/12/31 01:47:12;;;;;;;;;;;4.80;99.90;;;;;;5065543;28;19913;-84
2020/12/31 01:49:39;;;;;;;;;;;4.80;99.90;;;;;;5063298;28;19916;-82
2020/12/31 01:52:04;;;;;;;;;;;4.80;99.90;;;;;;5063278;28;19920;-83
2020/12/31 01:54:30;;;;;;;;;;;4.80;99.90;;;;;;5065582;28;19909;-83
2020/12/31 01:56:57;;;;;;;;;;;4.90;99.90;;;;;;5063732;28;20095;-83
2020/12/31 01:59:22;;;;;;;;;;;4.90;99.90;;;;;;5063637;28;19921;-84
2020/12/31 02:01:48;;;;;;;;;;;4.90;99.90;;;;;;5064457;28;19934;-84
2020/12/31 02:04:14;;;;;;;;;;;4.90;99.90;;;;;;5061557;28;20339;-83
2020/12/31 02:06:39;;;;;;;;;;;4.90;99.90;;;;;;5063025;28;19919;-83
2020/12/31 02:09:05;;;;;;;;;;;4.90;99.90;;;;;;5063807;28;19913;-83
2020/12/31 02:11:30;;;;;;;;;;;4.90;99.90;;;;;;5063900;28;19917;-84
2020/12/31 02:13:56;;;;;;;;;;;4.90;99.90;;;;;;5064092;28;19913;-83
2020/12/31 02:16:23;;;;;;;;;;;4.90;99.90;;;;;;5063095;28;19913;-83
2020/12/31 02:18:52;;;;;;;;;;;4.90;99.90;;;;;;5063386;28;19924;-84
2020/12/31 02:21:18;;;;;;;;;;;4.90;99.90;;;;;;5064834;28;19931;-83
2020/12/31 02:23:44;;;;;;;;;;;4.80;99.90;;;;;;5068281;28;20380;-83
2020/12/31 02:26:09;;;;;;;;;;;4.80;99.90;;;;;;5064287;28;19909;-83
2020/12/31 02:28:35;;;;;;;;;;;4.80;99.90;;;;;;5061573;28;20368;-83
2020/12/31 02:31:00;;;;;;;;;;;4.80;99.90;;;;;;5064434;28;19917;-83
2020/12/31 02:33:26;;;;;;;;;;;4.80;99.90;;;;;;5067113;28;19919;-84
2020/12/31 02:35:51;;;;;;;;;;;4.80;99.90;;;;;;5082280;28;19908;-83
2020/12/31 02:38:17;;;;;;;;;;;4.80;99.90;;;;;;5072861;28;19921;-83
2020/12/31 02:40:42;;;;;;;;;;;4.80;99.90;;;;;;5065012;28;19913;-84
2020/12/31 02:43:07;;;;;;;;;;;4.80;99.90;;;;;;5063341;28;19912;-84
2020/12/31 02:45:33;;;;;;;;;;;4.70;99.90;;;;;;5072287;28;19939;-82
2020/12/31 02:47:58;;;;;;;;;;;4.70;99.90;;;;;;5094868;28;19934;-83
2020/12/31 02:50:24;;;;;;;;;;;4.70;99.90;;;;;;5063072;28;20278;-83
2020/12/31 02:52:49;;;;;;;;;;;4.70;99.90;;;;;;5068201;28;19917;-84
2020/12/31 02:55:15;;;;;;;;;;;4.70;99.90;;;;;;5059609;28;19909;-83
2020/12/31 02:57:40;;;;;;;;;;;4.70;99.90;;;;;;5058934;28;19920;-84
2020/12/31 03:00:06;;;;;;;;;;;4.60;99.90;;;;;;5060074;28;20000;-83
2020/12/31 03:02:31;;;;;;;;;;;4.60;99.90;;;;;;5058329;28;20261;-84
2020/12/31 03:04:56;;;;;;;;;;;4.60;99.90;;;;;;5059287;28;19909;-83
2020/12/31 03:07:22;;;;;;;;;;;4.60;99.90;;;;;;5072545;28;20414;-83
2020/12/31 03:09:47;;;;;;;;;;;4.60;99.90;;;;;;5081861;28;19909;-83
2020/12/31 03:12:13;;;;;;;;;;;4.60;99.90;;;;;;5065490;28;20063;-83
2020/12/31 03:14:38;;;;;;;;;;;4.60;99.90;;;;;;5062022;28;19915;-83
2020/12/31 03:17:04;;;;;;;;;;;4.60;99.90;;;;;;5059994;28;19917;-82
2020/12/31 03:19:29;;;;;;;;;;;4.50;99.90;;;;;;5062551;28;19959;-83
2020/12/31 03:21:54;;;;;;;;;;;4.50;99.90;;;;;;5061390;28;19921;-84
2020/12/31 03:24:20;;;;;;;;;;;4.50;99.90;;;;;;5078074;28;19909;-83
2020/12/31 03:26:45;;;;;;;;;;;4.50;99.90;;;;;;5061805;28;19912;-84
2020/12/31 03:29:11;;;;;;;;;;;4.50;99.90;;;;;;5063699;28;19909;-83
2020/12/31 03:31:36;;;;;;;;;;;4.50;99.90;;;;;;5061600;28;19917;-83
2020/12/31 03:34:02;;;;;;;;;;;4.40;99.90;;;;;;5062221;28;19921;-83
2020/12/31 03:36:27;;;;;;;;;;;4.40;99.90;;;;;;5060574;28;19980;-83
2020/12/31 03:38:57;;;;;;;;;;;4.40;99.90;;;;;;5061506;28;19984;-83
2020/12/31 03:41:22;;;;;;;;;;;4.40;99.90;;;;;;5062703;28;20384;-83
2020/12/31 03:43:48;;;;;;;;;;;4.40;99.90;;;;;;5060913;28;19920;-83
2020/12/31 03:46:13;;;;;;;;;;;4.40;99.90;;;;;;5062331;28;20372;-83
2020/12/31 03:48:39;;;;;;;;;;;4.40;99.90;;;;;;5078592;28;19913;-84
2020/12/31 03:51:04;;;;;;;;;;;4.40;99.90;;;;;;5068598;28;19917;-84
2020/12/31 03:53:30;;;;;;;;;;;4.30;99.90;;;;;;5061303;28;19912;-84
2020/12/31 03:55:55;;;;;;;;;;;4.30;99.90;;;;;;5060893;28;20320;-84
2020/12/31 03:58:21;;;;;;;;;;;4.30;99.90;;;;;;5062621;28;19913;-84
2020/12/31 04:00:46;;;;;;;;;;;4.30;99.90;;;;;;5062746;28;19916;-84
2020/12/31 04:03:12;;;;;;;;;;;4.30;99.90;;;;;;5061398;28;19916;-84
2020/12/31 04:05:37;;;;;;;;;;;4.30;99.90;;;;;;5063043;28;19919;-84
2020/12/31 04:08:03;;;;;;;;;;;4.30;99.90;;;;;;5062340;28;19917;-85
2020/12/31 04:10:28;;;;;;;;;;;4.30;99.90;;;;;;5062076;28;19913;-84
2020/12/31 04:12:54;;;;;;;;;;;4.30;99.90;;;;;;5062550;28;19954;-84
2020/12/31 04:15:19;;;;;;;;;;;4.30;99.90;;;;;;5062552;28;19913;-84
2020/12/31 04:17:45;;;;;;;;;;;4.40;99.90;;;;;;5062035;28;20003;-85
2020/12/31 04:20:10;;;;;;;;;;;4.40;99.90;;;;;;5059376;28;20387;-84
2020/12/31 04:22:35;;;;;;;;;;;4.40;99.90;;;;;;5059711;28;19920;-84
2020/12/31 04:25:01;;;;;;;;;;;4.40;99.90;;;;;;5056488;28;21773;-84
2020/12/31 04:27:26;;;;;;;;;;;4.40;99.90;;;;;;5058448;28;19917;-85
2020/12/31 04:29:52;;;;;;;;;;;4.40;99.90;;;;;;5059038;28;19984;-84
2020/12/31 04:32:17;;;;;;;;;;;4.40;99.90;;;;;;5042244;28;19913;-84
2020/12/31 04:34:43;;;;;;;;;;;4.40;99.90;;;;;;5074423;28;19963;-84
2020/12/31 04:37:08;;;;;;;;;;;4.30;99.90;;;;;;5077777;28;19912;-84
2020/12/31 04:39:34;;;;;;;;;;;4.30;99.90;;;;;;5073635;28;19916;-85
2020/12/31 04:41:59;;;;;;;;;;;4.30;99.90;;;;;;5082234;28;19916;-85
2020/12/31 04:44:25;;;;;;;;;;;4.30;99.90;;;;;;5071947;28;19993;-85
2020/12/31 04:46:55;;;;;;;;;;;4.20;99.90;;;;;;5062124;28;19962;-85
2020/12/31 04:49:24;;;;;;;;;;;4.20;99.90;;;;;;5071786;28;19931;-84
2020/12/31 04:51:52;;;;;;;;;;;4.20;99.90;;;;;;5083028;28;19916;-85
2020/12/31 04:54:18;;;;;;;;;;;4.20;99.90;;;;;;5065644;28;19999;-84
2020/12/31 04:56:46;;;;;;;;;;;4.20;99.90;;;;;;5062284;28;19919;-84
2020/12/31 04:59:11;;;;;;;;;;;4.20;99.90;;;;;;5061393;28;19916;-84
2020/12/31 05:01:39;;;;;;;;;;;4.20;99.90;;;;;;5061276;28;19912;-84
2020/12/31 05:04:05;;;;;;;;;;;4.20;99.90;;;;;;5055266;28;19909;-84
2020/12/31 05:06:34;;;;;;;;;;;4.20;99.90;;;;;;5063884;28;20365;-84
2020/12/31 05:09:11;;;;;;;;;;;4.20;99.90;;;;;;5070628;28;19945;-85
2020/12/31 05:11:47;;;;;;;;;;;4.20;99.90;;;;;;5063003;28;19917;-85
2020/12/31 05:14:13;;;;;;;;;;;4.20;99.90;;;;;;5060566;28;19912;-84
2020/12/31 05:16:38;;;;;;;;;;;4.20;99.90;;;;;;5062254;28;19936;-85
2020/12/31 05:19:20;;;;;;;;;;;4.20;99.90;;;;;;5061057;28;19909;-85
2020/12/31 05:21:46;;;;;;;;;;;4.20;99.90;;;;;;5061387;28;20356;-85
2020/12/31 05:24:12;;;;;;;;;;;4.20;99.90;;;;;;5060794;28;19916;-84
2020/12/31 05:26:37;;;;;;;;;;;4.20;99.90;;;;;;5060963;28;20321;-84
2020/12/31 05:29:03;;;;;;;;;;;4.20;99.90;;;;;;5061377;28;19924;-85
2020/12/31 05:31:29;;;;;;;;;;;4.20;99.90;;;;;;5063446;28;20444;-85
2020/12/31 05:33:54;;;;;;;;;;;4.20;99.90;;;;;;5062436;28;19909;-85
2020/12/31 05:36:26;;;;;;;;;;;4.20;99.90;;;;;;5061061;28;19912;-85
2020/12/31 05:39:00;;;;;;;;;;;4.20;99.90;;;;;;5058171;28;19974;-85
2020/12/31 05:41:26;;;;;;;;;;;4.20;99.90;;;;;;5061300;28;19931;-84
2020/12/31 05:43:52;;;;;;;;;;;4.20;99.90;;;;;;5061764;28;20416;-85
2020/12/31 05:46:18;;;;;;;;;;;4.20;99.90;;;;;;5062970;28;19913;-85
2020/12/31 05:48:43;;;;;;;;;;;4.20;99.90;;;;;;5073904;28;19918;-84
2020/12/31 05:51:24;;;;;;;;;;;4.20;99.90;;;;;;5083107;28;19919;-85
2020/12/31 05:53:51;;;;;;;;;;;4.20;99.90;;;;;;5062384;28;19913;-85
2020/12/31 05:56:17;;;;;;;;;;;4.20;99.90;;;;;;5062197;28;19909;-84
2020/12/31 05:58:47;;;;;;;;;;;4.20;99.90;;;;;;5061286;28;19943;-84
2020/12/31 06:01:14;;;;;;;;;;;4.20;99.90;;;;;;5066017;28;19913;-84
2020/12/31 06:03:50;;;;;;;;;;;4.20;99.90;;;;;;5063796;28;20011;-85
2020/12/31 06:06:17;;;;;;;;;;;4.20;99.90;;;;;;5060896;28;19909;-84
2020/12/31 06:09:06;;;;;;;;;;;4.20;99.90;;;;;;5073331;28;19927;-84
2020/12/31 06:11:33;;;;;;;;;;;4.20;99.90;;;;;;5075239;28;19944;-84
2020/12/31 06:14:00;;;;;;;;;;;4.20;99.90;;;;;;5070048;28;19956;-84
2020/12/31 06:16:27;;;;;;;;;;;4.20;99.90;;;;;;5074167;28;19912;-84
2020/12/31 06:18:59;;;;;;;;;;;4.20;99.90;;;;;;5066800;28;19923;-84
2020/12/31 06:21:36;;;;;;;;;;;4.10;99.90;;;;;;5056569;28;19916;-84
2020/12/31 06:24:08;;;;;;;;;;;4.10;99.90;;;;;;5041585;28;19913;-84
2020/12/31 06:26:37;;;;;;;;;;;4.00;99.90;;;;;;5058941;28;19995;-84
2020/12/31 06:29:03;;;;;;;;;;;4.00;99.90;;;;;;5054902;28;19920;-84
2020/12/31 06:31:28;;;;;;;;;;;4.00;99.90;;;;;;5046641;28;19916;-84
2020/12/31 06:33:54;;;;;;;;;;;3.90;99.90;;;;;;5057361;28;19919;-84
2020/12/31 06:36:20;;;;;;;;;;;3.90;99.90;;;;;;5049331;28;19913;-84
2020/12/31 06:38:47;;;;;;;;;;;3.90;99.90;;;;;;5055656;28;20391;-84
2020/12/31 06:41:31;;;;;;;;;;;3.90;99.90;;;;;;5055548;28;19913;-84
2020/12/31 06:44:13;;;;;;;;;;;3.90;99.90;;;;;;5048775;28;19913;-84
2020/12/31 06:46:44;;;;;;;;;;;3.90;99.90;;;;;;5058148;28;19979;-84
2020/12/31 06:49:10;;;;;;;;;;;3.90;99.90;;;;;;5037132;28;19963;-84
2020/12/31 06:51:36;;;;;;;;;;;3.90;99.90;;;;;;5059782;28;20348;-83
2020/12/31 06:54:02;;;;;;;;;;;3.90;99.90;;;;;;5056373;28;19960;-84
2020/12/31 06:56:44;;;;;;;;;;;3.90;99.90;;;;;;5058236;28;19917;-84
2020/12/31 06:59:28;;;;;;;;;;;3.80;99.90;;;;;;5057473;28;19920;-84
2020/12/31 07:01:55;;;;;;;;;;;3.90;99.90;;;;;;5054951;28;20411;-84
2020/12/31 07:04:30;;;;;;;;;;;3.80;99.90;;;;;;5056675;28;19913;-84
2020/12/31 07:06:56;;;;;;;;;;;3.80;99.90;;;;;;5056394;28;19962;-84
2020/12/31 07:09:27;;;;;;;;;;;3.80;99.90;;;;;;5057772;28;19925;-84
2020/12/31 07:11:56;;;;;;;;;;;3.80;99.90;;;;;;5059217;28;20038;-84
2020/12/31 07:14:23;;;;;;;;;;;3.80;99.90;;;;;;5061388;28;19916;-84
2020/12/31 07:16:55;;;;;;;;;;;3.80;99.90;;;;;;5061029;28;19916;-84
2020/12/31 07:19:41;;;;;;;;;;;3.80;99.90;;;;;;5060157;28;20296;-83
2020/12/31 07:22:09;;;;;;;;;;;3.90;99.90;;;;;;5059366;28;19913;-84
2020/12/31 07:24:35;;;;;;;;;;;3.90;99.90;;;;;;5058695;28;19958;-84
2020/12/31 07:27:00;;;;;;;;;;;4.00;99.90;;;;;;5067348;28;20109;-84
2020/12/31 07:29:30;;;;;;;;;;;4.00;99.90;;;;;;5075656;28;19976;-84
2020/12/31 07:31:55;;;;;;;;;;;4.10;99.90;;;;;;5077260;28;19916;-83
2020/12/31 07:34:22;;;;;;;;;;;4.10;99.90;;;;;;5077109;28;20624;-84
2020/12/31 07:36:57;;;;;;;;;;;4.20;99.90;;;;;;5068985;28;20011;-84
2020/12/31 07:39:23;;;;;;;;;;;4.20;99.90;;;;;;5071478;28;19982;-84
2020/12/31 07:41:49;;;;;;;;;;;4.20;99.90;;;;;;5061713;28;19912;-84
2020/12/31 07:44:14;;;;;;;;;;;4.20;99.90;;;;;;5062566;28;19912;-84
2020/12/31 07:46:40;;;;;;;;;;;4.30;99.90;;;;;;5063393;28;19951;-84
2020/12/31 07:49:11;;;;;;;;;;;4.30;99.90;;;;;;5061344;28;19935;-84
2020/12/31 07:51:37;;;;;;;;;;;4.30;99.90;;;;;;5062111;28;20015;-84
2020/12/31 07:54:03;;;;;;;;;;;4.20;99.90;;;;;;5063770;28;19923;-84
2020/12/31 07:56:29;;;;;;;;;;;4.20;99.90;;;;;;5064024;28;19963;-85
2020/12/31 07:58:56;;;;;;;;;;;4.20;99.90;;;;;;5060593;28;20419;-84
2020/12/31 08:01:22;;;;;;;;;;;4.20;99.90;;;;;;5061732;28;20280;-84
2020/12/31 08:03:48;;;;;;;;;;;4.20;99.90;;;;;;5059703;28;19924;-83
2020/12/31 08:06:13;;;;;;;;;;;4.20;99.90;;;;;;5061263;28;19924;-83
2020/12/31 08:08:40;;;;;;;;;;;4.10;99.90;;;;;;5060662;28;19976;-84
2020/12/31 08:11:09;;;;;;;;;;;4.10;99.90;;;;;;5062267;28;19923;-84
2020/12/31 08:13:35;;;;;;;;;;;4.10;99.90;;;;;;5059234;28;19917;-83
2020/12/31 08:16:01;;;;;;;;;;;4.10;99.90;;;;;;5076722;28;19936;-84
2020/12/31 08:18:26;;;;;;;;;;;4.10;99.90;;;;;;5060228;28;20269;-84
2020/12/31 08:20:53;;;;;;;;;;;4.10;99.90;;;;;;5060937;28;19948;-84
2020/12/31 08:23:25;;;;;;;;;;;4.10;99.90;;;;;;5060043;28;19913;-84
2020/12/31 08:25:51;;;;;;;;;;;4.10;99.90;;;;;;5062444;28;20392;-84
2020/12/31 08:28:17;;;;;;;;;;;4.10;99.90;;;;;;5081013;28;19909;-84
2020/12/31 08:30:43;;;;;;;;;;;4.10;99.90;;;;;;5080718;28;20208;-84
2020/12/31 08:33:10;;;;;;;;;;;4.10;99.90;;;;;;5063234;28;19909;-84
2020/12/31 08:35:40;;;;;;;;;;;4.10;99.90;;;;;;5059913;28;19913;-84
2020/12/31 08:38:09;;;;;;;;;;;4.20;99.90;;;;;;5062438;28;19917;-84
2020/12/31 08:40:41;;;;;;;;;;;4.10;99.90;;;;;;5062568;28;19913;-84
2020/12/31 08:43:08;;;;;;;;;;;4.20;99.90;;;;;;5063602;28;19909;-84
2020/12/31 08:45:33;;;;;;;;;;;4.20;99.90;;;;;;5062104;28;19935;-84
2020/12/31 08:48:18;;;;;;;;;;;4.20;99.90;;;;;;5063577;28;19909;-84
2020/12/31 08:50:58;;;;;;;;;;;4.30;99.90;;;;;;5062884;28;19912;-84
2020/12/31 08:53:24;;;;;;;;;;;4.30;99.90;;;;;;5061464;28;19959;-84
2020/12/31 08:55:49;;;;;;;;;;;4.40;99.90;;;;;;5063502;28;19913;-83
2020/12/31 08:58:15;;;;;;;;;;;4.40;99.90;;;;;;5064496;28;19916;-82
2020/12/31 09:00:41;;;;;;;;;;;4.40;99.90;;;;;;5064461;28;20269;-83
2020/12/31 09:03:07;;;;;;;;;;;4.50;99.90;;;;;;5064177;28;19962;-83
2020/12/31 09:05:33;;;;;;;;;;;4.50;99.90;;;;;;5079565;28;19920;-83
2020/12/31 09:08:16;;;;;;;;;;;4.50;99.90;;;;;;5063694;28;19909;-83
2020/12/31 09:10:41;;;;;;;;;;;4.60;99.90;;;;;;5062544;28;20347;-82
2020/12/31 09:13:17;;;;;;;;;;;4.60;99.90;;;;;;5063554;28;19912;-83
2020/12/31 09:15:42;;;;;;;;;;;4.70;99.90;;;;;;5066936;28;19908;-82
2020/12/31 09:18:15;;;;;;;;;;;4.70;99.90;;;;;;5067925;28;19927;-83
2020/12/31 09:20:41;;;;;;;;;;;4.70;99.90;;;;;;5063605;28;19913;-83
2020/12/31 09:23:08;;;;;;;;;;;4.80;99.90;;;;;;5062377;28;20011;-83
2020/12/31 09:25:33;;;;;;;;;;;4.80;99.90;;;;;;5062913;28;19972;-82
2020/12/31 09:27:59;;;;;;;;;;;4.80;99.90;;;;;;5063164;28;19932;-82
2020/12/31 09:30:27;;;;;;;;;;;4.80;99.90;;;;;;5064025;28;19989;-83
2020/12/31 09:32:53;;;;;;;;;;;4.90;99.90;;;;;;5064726;28;19917;-82
2020/12/31 09:35:18;;;;;;;;;;;4.90;99.90;;;;;;5071536;28;19996;-83
2020/12/31 09:37:45;;;;;;;;;;;5.00;99.90;;;;;;5070059;28;19917;-83
2020/12/31 09:40:10;;;;;;;;;;;5.00;99.90;;;;;;5066362;28;19912;-83
2020/12/31 09:42:36;;;;;;;;;;;5.10;99.90;;;;;;5065747;28;19913;-83
2020/12/31 09:45:02;;;;;;;;;;;5.10;99.90;;;;;;5066110;28;19916;-83
2020/12/31 09:47:28;;;;;;;;;;;5.10;99.90;;;;;;5066057;28;19913;-83
2020/12/31 09:49:53;;;;;;;;;;;5.20;99.90;;;;;;5067207;28;20566;-83
2020/12/31 09:52:18;;;;;;;;;;;5.20;99.90;;;;;;5066645;28;19913;-83
2020/12/31 09:54:44;;;;;;;;;;;5.20;99.90;;;;;;5065745;28;19940;-83
2020/12/31 09:57:09;;;;;;;;;;;5.20;99.90;;;;;;5067340;28;19909;-83
2020/12/31 09:59:35;;;;;;;;;;;5.20;99.90;;;;;;5063733;28;19936;-83
2020/12/31 10:02:00;;;;;;;;;;;5.30;99.90;;;;;;5064130;28;19951;-83
2020/12/31 10:04:26;;;;;;;;;;;5.30;99.90;;;;;;5057024;28;19970;-83
2020/12/31 10:06:51;;;;;;;;;;;5.40;99.90;;;;;;5059401;28;19913;-83
2020/12/31 10:09:17;;;;;;;;;;;5.50;99.90;;;;;;5066305;28;20377;-83
2020/12/31 10:11:47;;;;;;;;;;;5.50;99.90;;;;;;5067375;28;19912;-83
2020/12/31 10:14:13;;;;;;;;;;;5.60;99.90;;;;;;5066599;28;19913;-83
2020/12/31 10:16:38;;;;;;;;;;;5.60;99.90;;;;;;5066225;28;19909;-83
2020/12/31 10:19:04;;;;;;;;;;;5.70;99.90;;;;;;5066813;28;19935;-83
2020/12/31 10:21:29;;;;;;;;;;;5.80;99.90;;;;;;5066346;28;19909;-83
2020/12/31 10:23:55;;;;;;;;;;;5.80;99.90;;;;;;5067338;28;20000;-83
2020/12/31 10:26:20;;;;;;;;;;;5.90;99.90;;;;;;5066196;28;19909;-83
2020/12/31 10:28:46;;;;;;;;;;;6.00;99.90;;;;;;5065739;28;19913;-83
2020/12/31 10:31:11;;;;;;;;;;;6.00;99.90;;;;;;5065416;28;19916;-83
2020/12/31 10:33:37;;;;;;;;;;;6.10;99.90;;;;;;5063527;28;19920;-83
2020/12/31 10:36:02;;;;;;;;;;;6.10;99.90;;;;;;5066159;28;20348;-83
2020/12/31 10:38:29;;;;;;;;;;;6.10;99.90;;;;;;5064747;28;19917;-83
2020/12/31 10:40:54;;;;;;;;;;;6.10;99.90;;;;;;5066194;28;19913;-83
2020/12/31 10:43:20;;;;;;;;;;;6.10;99.90;;;;;;5065990;28;19968;-83
2020/12/31 10:45:45;;;;;;;;;;;6.10;99.90;;;;;;5065478;28;19909;-83
2020/12/31 10:48:13;;;;;;;;;;;6.10;99.90;;;;;;5066260;28;20011;-83
2020/12/31 10:50:38;;;;;;;;;;;6.00;99.90;;;;;;5063260;28;19920;-83
2020/12/31 10:53:04;;;;;;;;;;;6.00;99.90;;;;;;5066321;28;20249;-84
2020/12/31 10:55:29;;;;;;;;;;;6.00;99.90;;;;;;5064016;28;19909;-84
2020/12/31 10:57:55;;;;;;;;;;;6.10;99.90;;;;;;5060595;28;19996;-83
2020/12/31 11:00:20;;;;;;;;;;;6.10;99.90;;;;;;5045050;28;19916;-83
2020/12/31 11:02:47;;;;;;;;;;;6.10;99.90;;;;;;5048519;28;20007;-83
2020/12/31 11:05:12;;;;;;;;;;;6.20;99.90;;;;;;5064652;28;19913;-84
2020/12/31 11:07:37;;;;;;;;;;;6.30;99.90;;;;;;5063713;28;19908;-84
2020/12/31 11:10:04;;;;;;;;;;;6.30;99.90;;;;;;5064754;28;19920;-84
2020/12/31 11:12:29;;;;;;;;;;;6.40;99.90;;;;;;5063942;28;19913;-83
2020/12/31 11:14:54;;;;;;;;;;;6.50;99.90;;;;;;5065408;28;19920;-83
2020/12/31 11:17:20;;;;;;;;;;;6.70;99.90;;;;;;5064665;28;19939;-83
2020/12/31 11:19:45;;;;;;;;;;;7.10;99.90;;;;;;5064692;28;19913;-84
2020/12/31 11:22:11;;;;;;;;;;;7.30;99.90;;;;;;5062459;28;19999;-84
2020/12/31 11:24:36;;;;;;;;;;;7.40;99.90;;;;;;5063717;28;19931;-83
2020/12/31 11:27:02;;;;;;;;;;;7.30;99.90;;;;;;5062077;28;19916;-84
2020/12/31 11:29:27;;;;;;;;;;;7.30;99.90;;;;;;5062834;28;19909;-83
2020/12/31 11:31:53;;;;;;;;;;;7.20;99.90;;;;;;5064122;28;19913;-83
2020/12/31 11:34:18;;;;;;;;;;;7.20;99.90;;;;;;5060628;28;20304;-83
2020/12/31 11:36:43;;;;;;;;;;;7.10;99.90;;;;;;5057845;28;19962;-83
2020/12/31 11:39:09;;;;;;;;;;;7.00;99.90;;;;;;5057425;28;19952;-84
2020/12/31 11:41:34;;;;;;;;;;;6.90;99.90;;;;;;5057375;28;19913;-84
2020/12/31 11:44:00;;;;;;;;;;;6.80;99.90;;;;;;5056925;28;19919;-83
2020/12/31 11:46:25;;;;;;;;;;;6.70;99.90;;;;;;5056876;28;19924;-83
2020/12/31 11:48:51;;;;;;;;;;;6.70;99.90;;;;;;5057147;28;19912;-84
2020/12/31 11:51:16;;;;;;;;;;;6.70;99.90;;;;;;5051763;28;20070;-84
2020/12/31 11:53:42;;;;;;;;;;;6.60;99.90;;;;;;5046651;28;19913;-84
2020/12/31 11:56:07;;;;;;;;;;;6.60;99.90;;;;;;5054434;28;19955;-84
2020/12/31 11:58:33;;;;;;;;;;;6.60;99.90;;;;;;5059178;28;20450;-83
2020/12/31 12:00:59;;;;;;;;;;;6.60;99.90;;;;;;5058876;28;20301;-83
2020/12/31 12:03:25;;;;;;;;;;;6.60;99.90;;;;;;5057616;28;19936;-83
2020/12/31 12:05:51;;;;;;;;;;;6.60;99.90;;;;;;5055300;28;19928;-83
2020/12/31 12:08:16;;;;;;;;;;;6.40;99.90;;;;;;5061808;28;19909;-83
2020/12/31 12:10:42;;;;;;;;;;;6.40;99.90;;;;;;5062539;28;19985;-83
2020/12/31 12:13:07;;;;;;;;;;;6.40;99.90;;;;;;5050780;28;19913;-83
2020/12/31 12:15:33;;;;;;;;;;;6.40;99.90;;;;;;5056154;28;19908;-83
2020/12/31 12:17:59;;;;;;;;;;;6.30;99.90;;;;;;5056766;28;19916;-84
2020/12/31 12:20:24;;;;;;;;;;;6.20;99.90;;;;;;5051844;28;19913;-84
2020/12/31 12:22:51;;;;;;;;;;;6.10;99.90;;;;;;5059407;28;19913;-84
2020/12/31 12:25:16;;;;;;;;;;;6.00;99.90;;;;;;5059363;28;19919;-83
2020/12/31 12:27:42;;;;;;;;;;;6.00;99.90;;;;;;5058083;28;19909;-83
2020/12/31 12:30:10;;;;;;;;;;;6.00;99.90;;;;;;5062174;28;19913;-83
2020/12/31 12:32:36;;;;;;;;;;;5.90;99.90;;;;;;5069949;28;19916;-83
2020/12/31 12:35:02;;;;;;;;;;;5.90;99.90;;;;;;5068063;28;19980;-84
2020/12/31 12:37:27;;;;;;;;;;;5.80;99.90;;;;;;5060849;28;19913;-83
2020/12/31 12:42:28;;;;;;;;;;;5.90;99.90;;;;;;4996553;28;19988;-81
2020/12/31 12:44:53;;;;;;;;;;;5.90;99.90;;;;;;4998103;28;19913;-83
2020/12/31 12:47:19;;;;;;;;;;;5.90;99.90;;;;;;4997152;28;20008;-85
2020/12/31 12:49:45;;;;;;;;;;;5.90;99.90;;;;;;4997370;28;20436;-85
2020/12/31 12:52:11;;;;;;;;;;;5.90;99.90;;;;;;5012381;28;19941;-83
2020/12/31 12:54:36;;;;;;;;;;;5.90;99.90;;;;;;5007413;28;19917;-80
2020/12/31 12:57:02;;;;;;;;;;;5.80;99.90;;;;;;5009212;28;20434;-83
2020/12/31 12:59:27;;;;;;;;;;;5.80;99.90;;;;;;4979014;28;20358;-85
2020/12/31 13:01:53;;;;;;;;;;;5.80;99.90;;;;;;4997144;28;19937;-85
2020/12/31 13:04:18;;;;;;;;;;;5.70;99.90;;;;;;4971862;28;19914;-84
2020/12/31 13:06:49;;;;;;;;;;;5.70;99.90;;;;;;5009757;28;20572;-84
2020/12/31 13:09:15;;;;;;;;;;;5.70;99.90;;;;;;4997214;28;20125;-84
2020/12/31 13:11:41;;;;;;;;;;;5.60;99.90;;;;;;4999824;28;19959;-83
2020/12/31 13:14:07;;;;;;;;;;;5.50;99.90;;;;;;4996152;28;19913;-83
2020/12/31 13:16:32;;;;;;;;;;;5.50;99.90;;;;;;5004198;28;19959;-83
2020/12/31 13:18:58;;;;;;;;;;;5.40;99.90;;;;;;4983210;28;19910;-83
2020/12/31 13:21:23;;;;;;;;;;;5.40;99.90;;;;;;4981447;28;19914;-83
2020/12/31 13:23:49;;;;;;;;;;;5.40;99.90;;;;;;4985118;28;19945;-83
2020/12/31 13:26:14;;;;;;;;;;;5.30;99.90;;;;;;4994517;28;19914;-83
2020/12/31 13:28:40;;;;;;;;;;;5.20;99.90;;;;;;5000903;28;19918;-83
2020/12/31 13:31:05;;;;;;;;;;;5.20;99.90;;;;;;5003676;28;19913;-83
2020/12/31 13:33:31;;;;;;;;;;;5.20;99.90;;;;;;5001255;28;19910;-83
2020/12/31 13:35:57;;;;;;;;;;;5.20;99.90;;;;;;5000761;28;19920;-83
2020/12/31 13:38:22;;;;;;;;;;;5.20;99.90;;;;;;4999643;28;19937;-83
2020/12/31 13:40:48;;;;;;;;;;;5.20;99.90;;;;;;5000773;28;20016;-83
2020/12/31 13:43:13;;;;;;;;;;;5.30;99.90;;;;;;5003387;28;19910;-83
2020/12/31 13:45:39;;;;;;;;;;;5.30;99.90;;;;;;4999897;28;21290;-82
2020/12/31 13:48:04;;;;;;;;;;;5.30;99.90;;;;;;4999748;28;19914;-83
2020/12/31 13:50:30;;;;;;;;;;;5.30;99.90;;;;;;4983594;28;19913;-83
2020/12/31 13:52:56;;;;;;;;;;;5.30;99.90;;;;;;4998166;28;20372;-82
2020/12/31 13:55:21;;;;;;;;;;;5.20;99.90;;;;;;4998290;28;19940;-83
2020/12/31 13:57:46;;;;;;;;;;;5.20;99.90;;;;;;4995225;28;20383;-83
2020/12/31 14:00:12;;;;;;;;;;;5.20;99.90;;;;;;4995165;28;20397;-82
2020/12/31 14:02:38;;;;;;;;;;;5.10;99.90;;;;;;4997314;28;19922;-83
2020/12/31 14:05:04;;;;;;;;;;;5.10;99.90;;;;;;5002642;28;19914;-81
2020/12/31 14:07:30;;;;;;;;;;;5.10;99.90;;;;;;4998450;28;19914;-82
2020/12/31 14:09:55;;;;;;;;;;;5.00;99.90;;;;;;4981642;28;19914;-83
2020/12/31 14:12:21;;;;;;;;;;;5.00;99.90;;;;;;4978968;28;19918;-83
2020/12/31 14:14:46;;;;;;;;;;;5.00;99.90;;;;;;4996743;28;19921;-83
2020/12/31 14:17:12;;;;;;;;;;;5.00;99.90;;;;;;4997649;28;19961;-83
2020/12/31 14:19:37;;;;;;;;;;;5.00;99.90;;;;;;4977123;28;20026;-83
2020/12/31 14:22:04;;;;;;;;;;;4.90;99.90;;;;;;5009315;28;19952;-83
2020/12/31 14:24:29;;;;;;;;;;;4.90;99.90;;;;;;4981790;28;19914;-82
2020/12/31 14:26:56;;;;;;;;;;;4.90;99.90;;;;;;4977589;28;19922;-84
2020/12/31 14:29:21;;;;;;;;;;;4.90;99.90;;;;;;4979670;28;20009;-82
2020/12/31 14:31:47;;;;;;;;;;;4.90;99.90;;;;;;4996930;28;20349;-83